Beaver Dam, Wisconsin
Current Conditions -  °F | °C
As of 7:35 PM on Monday 22 Dec 2014 (Local Time) from KUNU Reporting Station
Moderate Rain Moderate Rain  
Wind Chill: -3°   Ceiling: 500
Heat Index:   Visibility: 2mi
Dew Point:   Wind: 13mph
Humidity: 97%   Direction: 100°E
Pressure: 29.67"   Gusts: 17mph
Location:  43.46°N, 88.83°W
Report Text: KUNU 230135Z AUTO 10011G15KT 2SM RA OVC005 02/02 A2967 RMK AO2 T00210016
Loading
Personal Weather Stations






























Interactive Weather Map New forecast layout! Learn more

10-Day Weather Forecast

Advertisements
Track Severe Weather on mobile